createdAt,value
2019-04-01T00:01:03.417Z,8.40
2019-04-01T00:03:32.490Z,8.30
2019-04-01T00:06:01.578Z,8.20
2019-04-01T00:08:30.581Z,8.20
2019-04-01T00:10:59.673Z,8.10
2019-04-01T00:13:28.603Z,8.00
2019-04-01T00:15:57.693Z,8.00
2019-04-01T00:18:26.653Z,7.90
2019-04-01T00:20:55.660Z,7.90
2019-04-01T00:23:24.648Z,7.90
2019-04-01T00:25:53.743Z,7.90
2019-04-01T00:28:22.643Z,7.80
2019-04-01T00:30:52.652Z,7.80
2019-04-01T00:33:21.638Z,7.80
2019-04-01T00:35:50.705Z,7.70
2019-04-01T00:38:19.719Z,7.70
2019-04-01T00:40:48.715Z,7.70
2019-04-01T00:43:39.880Z,7.70
2019-04-01T00:46:10.373Z,7.60
2019-04-01T00:48:39.366Z,7.60
2019-04-01T00:51:08.420Z,7.60
2019-04-01T00:53:37.383Z,7.50
2019-04-01T00:56:06.453Z,7.60
2019-04-01T00:58:35.382Z,7.50
2019-04-01T01:01:05.814Z,7.40
2019-04-01T01:03:34.966Z,7.40
2019-04-01T01:06:03.948Z,7.40
2019-04-01T01:08:33.021Z,7.30
2019-04-01T01:11:01.956Z,7.20
2019-04-01T01:13:31.001Z,7.10
2019-04-01T01:15:59.962Z,7.20
2019-04-01T01:18:28.899Z,7.10
2019-04-01T01:20:58.022Z,7.00
2019-04-01T01:23:27.057Z,7.00
2019-04-01T01:25:56.102Z,6.90
2019-04-01T01:28:25.069Z,6.90
2019-04-01T01:30:54.700Z,6.90
2019-04-01T01:33:23.694Z,7.00
2019-04-01T01:35:52.770Z,7.00
2019-04-01T01:38:21.787Z,7.00
2019-04-01T01:40:50.768Z,7.00
2019-04-01T01:43:19.715Z,7.00
2019-04-01T01:45:48.673Z,6.90
2019-04-01T01:48:17.643Z,6.90
2019-04-01T01:50:46.587Z,7.10
2019-04-01T01:53:15.519Z,7.00
2019-04-01T01:55:44.592Z,6.90
2019-04-01T01:58:13.526Z,6.90
2019-04-01T02:00:42.701Z,6.80
2019-04-01T02:03:11.700Z,6.80
2019-04-01T02:05:40.861Z,6.70
2019-04-01T02:08:09.906Z,6.60
2019-04-01T02:10:38.959Z,6.70
2019-04-01T02:13:07.919Z,6.60
2019-04-01T02:15:36.942Z,6.80
2019-04-01T02:18:05.991Z,6.90
2019-04-01T02:20:36.056Z,6.80
2019-04-01T02:23:05.184Z,6.70
2019-04-01T02:25:34.767Z,6.70
2019-04-01T02:28:03.701Z,6.60
2019-04-01T02:30:32.773Z,6.70
2019-04-01T02:33:01.753Z,6.60
2019-04-01T02:35:30.837Z,6.50
2019-04-01T02:37:59.786Z,6.40
2019-04-01T02:40:28.836Z,6.40
2019-04-01T02:42:58.086Z,6.30
2019-04-01T02:45:27.050Z,6.20
2019-04-01T02:47:56.087Z,6.20
2019-04-01T02:50:25.158Z,6.10
2019-04-01T02:52:54.184Z,6.10
2019-04-01T02:55:23.200Z,6.10
2019-04-01T02:57:52.334Z,6.10
2019-04-01T03:00:21.487Z,6.20
2019-04-01T03:02:50.586Z,6.30
2019-04-01T03:05:19.678Z,6.20
2019-04-01T03:07:48.777Z,6.30
2019-04-01T03:10:19.886Z,6.30
2019-04-01T03:12:48.832Z,6.10
2019-04-01T03:15:17.801Z,6.10
2019-04-01T03:17:46.810Z,6.00
2019-04-01T03:20:15.891Z,5.90
2019-04-01T03:22:44.932Z,6.00
2019-04-01T03:25:14.084Z,6.00
2019-04-01T03:27:43.142Z,6.00
2019-04-01T03:30:12.232Z,6.00
2019-04-01T03:32:45.107Z,5.90
2019-04-01T03:35:11.994Z,6.00
2019-04-01T03:37:41.065Z,6.30
2019-04-01T03:40:10.148Z,6.30
2019-04-01T03:42:39.095Z,6.20
2019-04-01T03:45:08.241Z,6.10
2019-04-01T03:47:37.258Z,6.10
2019-04-01T03:50:06.348Z,6.20
2019-04-01T03:52:35.344Z,6.30
2019-04-01T03:55:04.617Z,6.40
2019-04-01T03:57:33.629Z,6.20
2019-04-01T04:00:02.698Z,6.20
2019-04-01T04:02:31.683Z,6.00
2019-04-01T04:05:00.653Z,5.80
2019-04-01T04:07:29.681Z,5.60
2019-04-01T04:10:02.877Z,5.60
2019-04-01T04:12:31.801Z,5.70
2019-04-01T04:15:00.695Z,5.70
2019-04-01T04:17:29.625Z,5.60
2019-04-01T04:19:58.543Z,5.70
2019-04-01T04:22:27.543Z,5.90
2019-04-01T04:24:56.697Z,6.00
2019-04-01T04:27:25.630Z,5.90
2019-04-01T04:29:54.786Z,6.00
2019-04-01T04:32:23.796Z,6.00
2019-04-01T04:34:56.899Z,5.90
2019-04-01T04:37:23.475Z,5.70
2019-04-01T04:39:52.603Z,5.70
2019-04-01T04:42:21.609Z,5.40
2019-04-01T04:44:50.544Z,5.20
2019-04-01T04:47:19.662Z,5.00
2019-04-01T04:49:48.725Z,4.90
2019-04-01T04:52:17.744Z,4.80
2019-04-01T04:54:47.018Z,4.90
2019-04-01T04:57:20.256Z,5.10
2019-04-01T04:59:47.573Z,5.10
2019-04-01T05:02:16.505Z,5.30
2019-04-01T05:04:45.409Z,5.40
2019-04-01T05:07:14.336Z,5.40
2019-04-01T05:09:43.398Z,5.50
2019-04-01T05:12:12.338Z,5.40
2019-04-01T05:14:41.424Z,5.20
2019-04-01T05:17:10.465Z,5.50
2019-04-01T05:19:39.473Z,5.50
2019-04-01T05:22:08.816Z,5.30
2019-04-01T05:24:38.015Z,5.40
2019-04-01T05:27:08.319Z,5.50
2019-04-01T05:29:38.796Z,5.60
2019-04-01T05:32:10.318Z,5.60
2019-04-01T05:34:41.456Z,5.80
2019-04-01T05:37:10.461Z,6.00
2019-04-01T05:39:39.480Z,6.20
2019-04-01T05:42:08.851Z,6.30
2019-04-01T05:44:38.050Z,6.20
2019-04-01T05:47:07.331Z,6.20
2019-04-01T05:49:37.716Z,6.00
2019-04-01T05:52:06.998Z,5.90
2019-04-01T05:54:36.111Z,5.90
2019-04-01T05:57:05.553Z,5.70
2019-04-01T05:59:34.634Z,5.70
2019-04-01T06:02:04.238Z,5.60
2019-04-01T06:04:33.233Z,5.70
2019-04-01T06:07:02.393Z,5.90
2019-04-01T06:09:31.465Z,6.10
2019-04-01T06:12:00.412Z,6.00
2019-04-01T06:14:29.445Z,6.10
2019-04-01T06:16:58.775Z,6.00
2019-04-01T06:19:28.282Z,6.00
2019-04-01T06:22:00.546Z,6.10
2019-04-01T06:24:29.665Z,6.20
2019-04-01T06:26:59.671Z,6.10
2019-04-01T06:29:28.637Z,6.20
2019-04-01T06:31:57.684Z,6.40
2019-04-01T06:34:26.844Z,6.50
2019-04-01T06:36:55.820Z,6.50
2019-04-01T06:39:24.815Z,6.50
2019-04-01T06:41:54.081Z,6.50
2019-04-01T06:44:23.060Z,6.40
2019-04-01T06:46:52.057Z,6.50
2019-04-01T06:49:21.062Z,6.50
2019-04-01T06:51:50.049Z,6.40
2019-04-01T06:54:19.135Z,6.50
2019-04-01T06:56:48.181Z,6.60
2019-04-01T06:59:18.297Z,6.60
2019-04-01T07:01:47.281Z,6.70
2019-04-01T07:04:16.215Z,7.00
2019-04-01T07:06:45.288Z,7.00
2019-04-01T07:09:14.318Z,7.00
2019-04-01T07:11:43.423Z,6.90
2019-04-01T07:14:12.569Z,6.90
2019-04-01T07:16:41.796Z,7.00
2019-04-01T07:19:10.776Z,7.00
2019-04-01T07:21:39.787Z,7.10
2019-04-01T07:24:08.734Z,7.00
2019-04-01T07:26:37.747Z,7.10
2019-04-01T07:29:06.836Z,7.20
2019-04-01T07:31:35.848Z,7.20
2019-04-01T07:34:04.794Z,7.20
2019-04-01T07:36:33.718Z,7.20
2019-04-01T07:39:03.633Z,7.40
2019-04-01T07:41:32.644Z,7.60
2019-04-01T07:44:02.574Z,7.60
2019-04-01T07:46:31.516Z,7.70
2019-04-01T07:49:00.534Z,7.90
2019-04-01T07:51:29.571Z,7.80
2019-04-01T07:53:58.570Z,7.90
2019-04-01T07:56:27.590Z,8.00
2019-04-01T07:58:56.581Z,8.00
2019-04-01T08:01:25.516Z,8.00
2019-04-01T08:03:54.437Z,8.00
2019-04-01T08:06:23.443Z,8.10
2019-04-01T08:08:52.471Z,8.10
2019-04-01T08:11:21.386Z,8.30
2019-04-01T08:13:50.385Z,8.40
2019-04-01T08:16:20.384Z,8.50
2019-04-01T08:18:49.438Z,8.60
2019-04-01T08:21:18.434Z,8.60
2019-04-01T08:23:47.440Z,8.40
2019-04-01T08:26:16.449Z,8.60
2019-04-01T08:28:45.496Z,8.60
2019-04-01T08:31:14.499Z,8.60
2019-04-01T08:33:43.514Z,8.70
2019-04-01T08:36:12.513Z,8.80
2019-04-01T08:38:41.551Z,9.00
2019-04-01T08:41:10.549Z,9.10
2019-04-01T08:43:39.628Z,9.00
2019-04-01T08:46:08.653Z,9.10
2019-04-01T08:48:37.710Z,9.40
2019-04-01T08:51:06.727Z,9.40
2019-04-01T08:53:35.861Z,9.50
2019-04-01T08:56:04.993Z,9.70
2019-04-01T08:58:33.965Z,9.70
2019-04-01T09:01:03.046Z,9.70
2019-04-01T09:03:32.048Z,9.60
2019-04-01T09:06:01.557Z,9.80
2019-04-01T09:08:31.164Z,9.80
2019-04-01T09:11:00.585Z,9.80
2019-04-01T09:13:29.884Z,9.70
2019-04-01T09:15:59.902Z,9.70
2019-04-01T09:18:28.812Z,9.90
2019-04-01T09:20:57.843Z,9.90
2019-04-01T09:23:26.809Z,10.10
2019-04-01T09:25:55.905Z,10.20
2019-04-01T09:28:24.818Z,10.20
2019-04-01T09:30:53.713Z,10.30
2019-04-01T09:33:22.721Z,10.40
2019-04-01T09:35:51.764Z,10.30
2019-04-01T09:38:20.791Z,10.20
2019-04-01T09:40:49.829Z,10.30
2019-04-01T09:43:18.818Z,10.40
2019-04-01T09:45:47.886Z,10.40
2019-04-01T09:48:16.790Z,10.40
2019-04-01T09:50:45.890Z,10.50
2019-04-01T09:53:14.941Z,10.50
2019-04-01T09:55:43.979Z,10.50
2019-04-01T09:58:13.014Z,10.60
2019-04-01T10:00:42.077Z,10.80
2019-04-01T10:03:11.096Z,10.80
2019-04-01T10:05:40.051Z,10.70
2019-04-01T10:08:08.977Z,10.70
2019-04-01T10:10:37.972Z,10.80
2019-04-01T10:13:06.938Z,11.00
2019-04-01T10:15:35.854Z,11.00
2019-04-01T10:18:04.894Z,11.00
2019-04-01T10:20:33.826Z,11.10
2019-04-01T10:23:02.821Z,11.10
2019-04-01T10:25:31.841Z,11.00
2019-04-01T10:28:01.554Z,11.00
2019-04-01T10:30:30.623Z,11.10
2019-04-01T10:33:02.094Z,11.20
2019-04-01T10:35:30.286Z,11.30
2019-04-01T10:37:59.318Z,11.30
2019-04-01T10:40:28.348Z,11.40
2019-04-01T10:42:57.378Z,11.70
2019-04-01T10:45:26.404Z,11.80
2019-04-01T10:47:55.427Z,11.80
2019-04-01T10:50:24.598Z,11.80
2019-04-01T10:52:53.809Z,11.80
2019-04-01T10:55:22.827Z,12.00
2019-04-01T10:57:53.865Z,12.00
2019-04-01T11:00:22.700Z,12.00
2019-04-01T11:02:51.803Z,12.00
2019-04-01T11:05:20.912Z,12.10
2019-04-01T11:07:49.998Z,12.30
2019-04-01T11:10:19.194Z,12.30
2019-04-01T11:12:48.239Z,12.20
2019-04-01T11:15:18.206Z,12.20
2019-04-01T11:17:47.214Z,12.30
2019-04-01T11:20:16.231Z,12.30
2019-04-01T11:22:45.254Z,12.50
2019-04-01T11:25:14.255Z,12.60
2019-04-01T11:27:43.274Z,12.50
2019-04-01T11:30:13.840Z,12.50
2019-04-01T11:32:43.170Z,12.60
2019-04-01T11:35:12.297Z,12.70
2019-04-01T11:37:41.669Z,12.80
2019-04-01T11:40:12.265Z,13.00
2019-04-01T11:42:41.600Z,12.90
2019-04-01T11:45:10.860Z,13.10
2019-04-01T11:47:40.020Z,13.20
2019-04-01T11:50:09.212Z,13.10
2019-04-01T11:52:38.549Z,13.20
2019-04-01T11:55:09.176Z,13.30
2019-04-01T11:57:38.736Z,13.40
2019-04-01T12:00:13.260Z,13.50
2019-04-01T12:02:42.641Z,13.60
2019-04-01T12:05:11.832Z,13.70
2019-04-01T12:07:40.938Z,13.80
2019-04-01T12:10:10.922Z,13.80
2019-04-01T12:12:40.878Z,13.90
2019-04-01T12:15:12.257Z,14.10
2019-04-01T12:17:41.691Z,14.00
2019-04-01T12:20:11.339Z,14.10
2019-04-01T12:22:45.235Z,14.10
2019-04-01T12:25:12.098Z,14.10
2019-04-01T12:27:41.172Z,14.10
2019-04-01T12:30:10.360Z,14.20
2019-04-01T12:32:39.464Z,14.30
2019-04-01T12:35:08.558Z,14.30
2019-04-01T12:37:37.642Z,14.30
2019-04-01T12:40:07.897Z,14.30
2019-04-01T12:42:36.941Z,14.30
2019-04-01T12:45:06.829Z,14.60
2019-04-01T12:47:35.833Z,14.70
2019-04-01T12:50:05.114Z,14.70
2019-04-01T12:52:34.163Z,14.80
2019-04-01T12:55:03.378Z,15.00
2019-04-01T12:57:32.470Z,14.90
2019-04-01T13:00:01.603Z,15.10
2019-04-01T13:02:30.630Z,15.40
2019-04-01T13:04:59.657Z,15.70
2019-04-01T13:07:28.738Z,16.10
2019-04-01T13:09:57.862Z,15.80
2019-04-01T13:12:27.543Z,15.80
2019-04-01T13:14:56.882Z,15.60
2019-04-01T13:17:25.841Z,15.70
2019-04-01T13:19:54.785Z,15.40
2019-04-01T13:22:23.785Z,15.40
2019-04-01T13:24:52.715Z,15.50
2019-04-01T13:27:21.825Z,15.30
2019-04-01T13:29:50.740Z,15.30
2019-04-01T13:32:20.571Z,15.50
2019-04-01T13:34:49.609Z,15.60
2019-04-01T13:37:18.699Z,15.50
2019-04-01T13:39:47.648Z,15.40
2019-04-01T13:42:16.960Z,15.60
2019-04-01T13:44:45.888Z,15.60
2019-04-01T13:47:14.923Z,15.70
2019-04-01T13:49:43.904Z,15.90
2019-04-01T13:52:12.909Z,15.90
2019-04-01T13:54:41.976Z,15.80
2019-04-01T13:57:10.976Z,15.70
2019-04-01T13:59:49.139Z,15.50
2019-04-01T14:02:10.752Z,15.40
2019-04-01T14:04:39.873Z,15.50
2019-04-01T14:07:08.889Z,15.50
2019-04-01T14:09:37.891Z,15.40
2019-04-01T14:12:06.947Z,15.50
2019-04-01T14:14:36.969Z,15.70
2019-04-01T14:17:06.080Z,15.70
2019-04-01T14:19:34.978Z,15.60
2019-04-01T14:22:05.057Z,15.50
2019-04-01T14:24:34.007Z,15.40
2019-04-01T14:27:04.097Z,15.40
2019-04-01T14:29:32.933Z,15.50
2019-04-01T14:32:01.959Z,15.60
2019-04-01T14:34:31.049Z,15.50
2019-04-01T14:37:00.168Z,15.60
2019-04-01T14:39:30.487Z,15.70
2019-04-01T14:41:59.906Z,15.80
2019-04-01T14:44:28.967Z,15.70
2019-04-01T14:46:57.825Z,15.90
2019-04-01T14:49:26.760Z,16.10
2019-04-01T14:51:55.872Z,16.30
2019-04-01T14:54:24.730Z,16.30
2019-04-01T14:56:54.706Z,16.20
2019-04-01T14:59:23.746Z,16.30
2019-04-01T15:01:52.844Z,16.30
2019-04-01T15:04:21.864Z,16.00
2019-04-01T15:06:50.941Z,15.80
2019-04-01T15:09:23.318Z,15.70
2019-04-01T15:11:50.645Z,15.60
2019-04-01T15:14:19.528Z,15.60
2019-04-01T15:16:48.478Z,15.50
2019-04-01T15:19:17.459Z,15.50
2019-04-01T15:21:47.505Z,15.50
2019-04-01T15:24:16.425Z,15.40
2019-04-01T15:26:45.422Z,15.40
2019-04-01T15:29:16.603Z,15.50
2019-04-01T15:31:45.540Z,15.40
2019-04-01T15:34:14.464Z,15.40
2019-04-01T15:36:43.408Z,15.40
2019-04-01T15:39:14.315Z,15.40
2019-04-01T15:41:43.270Z,15.50
2019-04-01T15:44:12.249Z,15.60
2019-04-01T15:46:41.202Z,15.60
2019-04-01T15:49:11.437Z,15.50
2019-04-01T15:51:40.644Z,15.50
2019-04-01T15:54:09.574Z,15.60
2019-04-01T15:56:41.803Z,15.50
2019-04-01T15:59:10.381Z,15.60
2019-04-01T16:01:39.362Z,15.60
2019-04-01T16:04:08.654Z,15.50
2019-04-01T16:06:38.938Z,15.60
2019-04-01T16:09:08.327Z,15.60
2019-04-01T16:11:37.278Z,15.50
2019-04-01T16:14:06.366Z,15.40
2019-04-01T16:16:36.181Z,15.30
2019-04-01T16:19:05.272Z,15.10
2019-04-01T16:21:34.270Z,15.10
2019-04-01T16:24:03.232Z,15.00
2019-04-01T16:26:32.220Z,15.00
2019-04-01T16:29:01.144Z,15.00
2019-04-01T16:31:30.138Z,15.00
2019-04-01T16:33:59.221Z,15.00
2019-04-01T16:36:28.192Z,14.90
2019-04-01T16:38:57.234Z,14.80
2019-04-01T16:41:26.310Z,14.70
2019-04-01T16:43:55.405Z,14.70
2019-04-01T16:46:24.483Z,14.70
2019-04-01T16:48:53.489Z,14.60
2019-04-01T16:51:22.549Z,14.60
2019-04-01T16:53:51.581Z,14.60
2019-04-01T16:56:20.512Z,14.60
2019-04-01T16:58:50.558Z,14.50
2019-04-01T17:01:19.705Z,14.50
2019-04-01T17:03:48.905Z,14.40
2019-04-01T17:06:18.268Z,14.40
2019-04-01T17:08:48.363Z,14.30
2019-04-01T17:11:17.672Z,14.30
2019-04-01T17:13:46.717Z,14.20
2019-04-01T17:16:16.734Z,14.10
2019-04-01T17:18:45.901Z,14.10
2019-04-01T17:21:14.981Z,14.00
2019-04-01T17:23:44.989Z,13.90
2019-04-01T17:26:14.132Z,13.90
2019-04-01T17:28:43.211Z,13.90
2019-04-01T17:31:19.116Z,13.80
2019-04-01T17:33:50.572Z,13.70
2019-04-01T17:36:21.567Z,13.70
2019-04-01T17:38:50.644Z,13.70
2019-04-01T17:41:19.909Z,13.60
2019-04-01T17:43:49.038Z,13.70
2019-04-01T17:46:18.115Z,13.60
2019-04-01T17:48:47.253Z,13.50
2019-04-01T17:51:16.276Z,13.40
2019-04-01T17:53:45.451Z,13.40
2019-04-01T17:56:14.591Z,13.30
2019-04-01T17:58:44.428Z,13.20
2019-04-01T18:01:13.740Z,13.10
2019-04-01T18:03:42.678Z,12.90
2019-04-01T18:06:11.681Z,12.80
2019-04-01T18:08:40.721Z,12.70
2019-04-01T18:11:09.687Z,12.60
2019-04-01T18:13:38.694Z,12.50
2019-04-01T18:16:07.761Z,12.40
2019-04-01T18:18:36.773Z,12.30
2019-04-01T18:21:05.785Z,12.20
2019-04-01T18:23:34.745Z,12.10
2019-04-01T18:26:03.650Z,12.00
2019-04-01T18:28:32.590Z,11.90
2019-04-01T18:31:01.552Z,11.80
2019-04-01T18:33:31.677Z,11.70
2019-04-01T18:36:01.567Z,11.70
2019-04-01T18:38:30.503Z,11.70
2019-04-01T18:40:59.437Z,11.60
2019-04-01T18:43:28.553Z,11.50
2019-04-01T18:45:57.517Z,11.40
2019-04-01T18:48:26.471Z,11.30
2019-04-01T18:50:55.536Z,11.30
2019-04-01T18:53:24.524Z,11.30
2019-04-01T18:55:53.549Z,11.20
2019-04-01T18:58:22.420Z,11.20
2019-04-01T19:00:51.532Z,11.20
2019-04-01T19:03:24.074Z,11.20
2019-04-01T19:05:52.853Z,11.20
2019-04-01T19:08:21.881Z,11.10
2019-04-01T19:11:01.805Z,11.10
2019-04-01T19:13:22.546Z,11.10
2019-04-01T19:15:53.542Z,11.00
2019-04-01T19:18:24.277Z,10.90
2019-04-01T19:20:56.984Z,10.90
2019-04-01T19:23:24.093Z,10.80
2019-04-01T19:25:53.226Z,10.80
2019-04-01T19:28:23.461Z,10.70
2019-04-01T19:30:53.373Z,10.70
2019-04-01T19:33:22.361Z,10.70
2019-04-01T19:35:51.474Z,10.60
2019-04-01T19:38:28.483Z,10.60
2019-04-01T19:40:59.785Z,10.50
2019-04-01T19:43:31.404Z,10.40
2019-04-01T19:46:01.534Z,10.50
2019-04-01T19:48:31.344Z,10.50
2019-04-01T19:51:01.237Z,10.50
2019-04-01T19:53:30.345Z,10.40
2019-04-01T19:55:59.353Z,10.40
2019-04-01T19:58:28.465Z,10.30
2019-04-01T20:00:57.572Z,10.20
2019-04-01T20:03:26.746Z,10.20
2019-04-01T20:05:56.902Z,10.20
2019-04-01T20:08:25.954Z,10.20
2019-04-01T20:10:54.962Z,10.10
2019-04-01T20:13:23.937Z,10.10
2019-04-01T20:15:52.883Z,10.30
2019-04-01T20:18:22.860Z,10.10
2019-04-01T20:20:52.064Z,10.10
2019-04-01T20:23:21.074Z,10.00
2019-04-01T20:25:50.235Z,10.00
2019-04-01T20:28:19.326Z,10.00
2019-04-01T20:30:48.405Z,9.90
2019-04-01T20:33:18.447Z,9.90
2019-04-01T20:35:48.144Z,9.90
2019-04-01T20:38:17.116Z,9.90
2019-04-01T20:40:46.223Z,9.90
2019-04-01T20:43:15.614Z,9.90
2019-04-01T20:45:45.765Z,10.00
2019-04-01T20:48:14.744Z,9.90
2019-04-01T20:50:43.841Z,9.90
2019-04-01T20:53:13.850Z,9.90
2019-04-01T20:55:48.377Z,9.90
2019-04-01T20:58:14.189Z,9.80
2019-04-01T21:00:43.520Z,9.80
2019-04-01T21:03:12.448Z,9.90
2019-04-01T21:05:41.449Z,9.90
2019-04-01T21:08:10.465Z,9.90
2019-04-01T21:10:39.546Z,9.80
2019-04-01T21:13:09.412Z,9.80
2019-04-01T21:15:38.383Z,9.80
2019-04-01T21:18:07.316Z,9.80
2019-04-01T21:20:36.179Z,9.80
2019-04-01T21:23:06.203Z,9.80
2019-04-01T21:25:36.068Z,9.80
2019-04-01T21:28:05.156Z,9.70
2019-04-01T21:30:34.249Z,9.60
2019-04-01T21:33:03.212Z,9.60
2019-04-01T21:35:32.184Z,9.50
2019-04-01T21:38:03.166Z,9.50
2019-04-01T21:40:33.109Z,9.50
2019-04-01T21:43:03.357Z,9.50
2019-04-01T21:45:32.602Z,9.40
2019-04-01T21:48:01.617Z,9.40
2019-04-01T21:50:35.032Z,9.40
2019-04-01T21:53:04.214Z,9.40
2019-04-01T21:55:33.297Z,9.40
2019-04-01T21:58:03.230Z,9.40
2019-04-01T22:00:50.396Z,9.30
2019-04-01T22:03:19.449Z,9.30
2019-04-01T22:05:48.505Z,9.30
2019-04-01T22:08:17.776Z,9.30
2019-04-01T22:10:46.996Z,9.30
2019-04-01T22:13:15.937Z,9.20
2019-04-01T22:15:46.535Z,9.10
2019-04-01T22:18:15.493Z,9.20
2019-04-01T22:20:44.516Z,9.20
2019-04-01T22:23:13.641Z,9.10
2019-04-01T22:25:42.560Z,9.10
2019-04-01T22:28:11.614Z,9.10
2019-04-01T22:30:40.633Z,9.10
2019-04-01T22:33:11.114Z,9.10
2019-04-01T22:35:41.569Z,9.10
2019-04-01T22:38:10.924Z,9.10
2019-04-01T22:40:39.957Z,9.10
2019-04-01T22:43:09.918Z,9.10
2019-04-01T22:45:38.990Z,9.10
2019-04-01T22:48:07.972Z,9.20
2019-04-01T22:50:37.054Z,9.20
2019-04-01T22:53:06.072Z,9.20
2019-04-01T22:55:35.068Z,9.10
2019-04-01T22:58:05.150Z,9.10
2019-04-01T23:00:34.246Z,9.10
2019-04-01T23:03:03.331Z,9.10
2019-04-01T23:05:32.361Z,9.10
2019-04-01T23:08:02.386Z,9.10
2019-04-01T23:10:31.756Z,9.10
2019-04-01T23:13:01.648Z,9.20
2019-04-01T23:15:30.648Z,9.10
2019-04-01T23:17:59.623Z,9.10
2019-04-01T23:20:29.537Z,9.10
2019-04-01T23:23:03.505Z,9.00
2019-04-01T23:25:32.435Z,9.00
2019-04-01T23:28:01.585Z,9.00
2019-04-01T23:30:30.733Z,9.00
2019-04-01T23:33:01.600Z,9.00
2019-04-01T23:35:30.613Z,8.90
2019-04-01T23:38:01.602Z,8.90
2019-04-01T23:40:32.443Z,8.80
2019-04-01T23:43:01.807Z,8.80
2019-04-01T23:45:30.836Z,8.80
2019-04-01T23:47:59.876Z,8.70
2019-04-01T23:50:28.945Z,8.60
2019-04-01T23:52:57.904Z,8.60
2019-04-01T23:55:26.840Z,8.60
2019-04-01T23:57:55.930Z,8.50
